createdAt,value
2019-01-13T00:01:59.954Z,96840.27
2019-01-13T00:04:26.736Z,96839.27
2019-01-13T00:06:57.344Z,96835.03
2019-01-13T00:09:27.462Z,96833.89
2019-01-13T00:11:55.894Z,96833.88
2019-01-13T00:14:26.848Z,96839.11
2019-01-13T00:16:59.297Z,96837.63
2019-01-13T00:19:25.904Z,96830.97
2019-01-13T00:21:56.740Z,96836.19
2019-01-13T00:24:26.847Z,96832.91
2019-01-13T00:26:54.014Z,96831.41
2019-01-13T00:29:24.935Z,96834.03
2019-01-13T00:31:56.295Z,96837.98
2019-01-13T00:34:27.979Z,96837.97
2019-01-13T00:36:58.668Z,96837.49
2019-01-13T00:39:37.513Z,96830.16
2019-01-13T00:42:06.353Z,96832.58
2019-01-13T00:44:35.205Z,96820.69
2019-01-13T00:47:11.337Z,96817.44
2019-01-13T00:49:39.129Z,96821.88
2019-01-13T00:52:08.999Z,96813.09
2019-01-13T00:54:39.878Z,96813.73
2019-01-13T00:57:06.805Z,96810.46
2019-01-13T00:59:35.635Z,96804.58
2019-01-13T01:02:02.736Z,96801.31
2019-01-13T01:04:41.921Z,96802.78
2019-01-13T01:07:11.995Z,96799.53
2019-01-13T01:09:42.261Z,96796.09
2019-01-13T01:12:11.175Z,96798.38
2019-01-13T01:14:38.756Z,96788.81
2019-01-13T01:17:05.802Z,96786.08
2019-01-13T01:19:36.555Z,96789.80
2019-01-13T01:22:05.906Z,96780.02
2019-01-13T01:24:36.452Z,96783.44
2019-01-13T01:27:05.379Z,96783.26
2019-01-13T01:29:34.427Z,96782.44
2019-01-13T01:34:31.743Z,96773.20
2019-01-13T01:36:58.676Z,96774.17
2019-01-13T01:39:28.518Z,96768.17
2019-01-13T01:41:56.386Z,96770.13
2019-01-13T01:44:22.998Z,96760.84
2019-01-13T01:46:50.144Z,96761.66
2019-01-13T01:49:19.639Z,96759.53
2019-01-13T01:51:46.288Z,96758.57
2019-01-13T01:54:13.069Z,96751.75
2019-01-13T01:56:43.557Z,96747.03
2019-01-13T01:59:11.539Z,96747.35
2019-01-13T02:01:42.940Z,96746.56
2019-01-13T02:04:06.535Z,96740.86
2019-01-13T02:06:33.283Z,96738.09
2019-01-13T02:08:59.876Z,96735.48
2019-01-13T02:11:35.784Z,96730.27
2019-01-13T02:14:04.670Z,96728.63
2019-01-13T02:16:33.544Z,96728.15
2019-01-13T02:18:59.910Z,96725.06
2019-01-13T02:21:26.503Z,96721.98
2019-01-13T02:23:55.733Z,96723.63
2019-01-13T02:26:25.907Z,96724.73
2019-01-13T02:28:52.507Z,96716.61
2019-01-13T02:31:26.411Z,96717.75
2019-01-13T02:33:52.973Z,96719.70
2019-01-13T02:36:21.101Z,96707.67
2019-01-13T02:38:49.355Z,96703.28
2019-01-13T02:41:24.531Z,96706.86
2019-01-13T02:43:53.742Z,96709.00
2019-01-13T02:46:21.106Z,96708.16
2019-01-13T02:48:48.755Z,96698.88
2019-01-13T02:51:26.363Z,96709.13
2019-01-13T02:53:52.974Z,96704.42
2019-01-13T02:56:19.735Z,96700.70
2019-01-13T02:58:46.665Z,96701.83
2019-01-13T03:01:13.262Z,96706.72
2019-01-13T03:03:39.906Z,96704.73
2019-01-13T03:06:06.764Z,96701.34
2019-01-13T03:08:33.638Z,96703.09
2019-01-13T03:11:00.247Z,96696.59
2019-01-13T03:13:29.934Z,96698.22
2019-01-13T03:16:00.411Z,96699.52
2019-01-13T03:18:28.063Z,96693.52
2019-01-13T03:20:54.922Z,96696.42
2019-01-13T03:23:21.875Z,96685.06
2019-01-13T03:25:48.552Z,96684.53
2019-01-13T03:28:17.698Z,96684.02
2019-01-13T03:30:45.382Z,96684.87
2019-01-13T03:35:58.994Z,96684.25
2019-01-13T03:38:28.210Z,96684.09
2019-01-13T03:40:55.098Z,96684.73
2019-01-13T03:43:24.456Z,96682.65
2019-01-13T03:45:52.017Z,96678.59
2019-01-13T03:48:18.938Z,96674.35
2019-01-13T03:50:45.536Z,96677.45
2019-01-13T03:53:12.498Z,96681.99
2019-01-13T03:55:39.923Z,96678.77
2019-01-13T03:58:06.545Z,96682.33
2019-01-13T04:00:33.237Z,96680.20
2019-01-13T04:03:00.097Z,96679.73
2019-01-13T04:05:26.701Z,96676.30
2019-01-13T04:07:54.181Z,96676.14
2019-01-13T04:10:20.801Z,96681.51
2019-01-13T04:12:49.904Z,96684.58
2019-01-13T04:15:16.251Z,96686.88
2019-01-13T04:17:46.623Z,96678.91
2019-01-13T04:20:13.237Z,96674.50
2019-01-13T04:22:44.511Z,96685.20
2019-01-13T04:25:14.829Z,96679.06
2019-01-13T04:27:51.014Z,96680.05
2019-01-13T04:30:17.967Z,96677.92
2019-01-13T04:32:52.474Z,96676.77
2019-01-13T05:09:32.809Z,96675.91
2019-01-13T05:11:59.646Z,96674.23
2019-01-13T05:14:26.249Z,96674.00
2019-01-13T05:16:52.901Z,96671.08
2019-01-13T05:19:19.691Z,96666.34
2019-01-13T05:21:46.277Z,96671.35
2019-01-13T05:24:13.155Z,96667.25
2019-01-13T05:26:39.796Z,96668.84
2019-01-13T05:29:06.673Z,96669.48
2019-01-13T05:31:33.327Z,96676.67
2019-01-13T05:33:59.916Z,96665.36
2019-01-13T05:36:26.790Z,96665.98
2019-01-13T05:38:53.421Z,96669.70
2019-01-13T05:41:20.065Z,96673.59
2019-01-13T05:43:46.845Z,96676.95
2019-01-13T05:46:13.561Z,96684.80
2019-01-13T05:48:40.172Z,96679.05
2019-01-13T05:51:06.903Z,96675.44
2019-01-13T05:53:33.602Z,96677.47
2019-01-13T05:56:00.184Z,96679.12
2019-01-13T05:58:26.971Z,96679.41
2019-01-13T06:00:53.646Z,96676.34
2019-01-13T06:03:20.369Z,96677.27
2019-01-13T06:05:47.080Z,96688.28
2019-01-13T06:08:13.990Z,96681.19
2019-01-13T06:10:40.609Z,96684.14
2019-01-13T06:13:07.182Z,96686.59
2019-01-13T06:15:34.110Z,96686.27
2019-01-13T06:18:00.714Z,96689.65
2019-01-13T06:20:27.310Z,96680.77
2019-01-13T06:22:54.209Z,96682.06
2019-01-13T06:25:20.790Z,96678.16
2019-01-13T06:27:47.447Z,96674.27
2019-01-13T06:30:14.230Z,96671.84
2019-01-13T06:32:40.814Z,96685.78
2019-01-13T06:35:07.724Z,96680.94
2019-01-13T06:37:34.324Z,96686.42
2019-01-13T06:40:01.207Z,96691.93
2019-01-13T06:42:28.103Z,96689.22
2019-01-13T06:44:54.800Z,96692.97
2019-01-13T06:47:21.962Z,96693.29
2019-01-13T06:49:48.875Z,96692.16
2019-01-13T06:52:15.963Z,96693.46
2019-01-13T06:54:43.889Z,96697.61
2019-01-13T06:57:10.541Z,96695.51
2019-01-13T06:59:37.549Z,96689.85
2019-01-13T07:02:04.518Z,96692.91
2019-01-13T07:04:31.397Z,96695.16
2019-01-13T07:06:58.013Z,96693.72
2019-01-13T07:09:25.476Z,96695.61
2019-01-13T07:11:52.090Z,96698.66
2019-01-13T07:14:18.708Z,96706.45
2019-01-13T07:16:45.623Z,96705.42
2019-01-13T07:19:14.089Z,96705.72
2019-01-13T07:21:40.728Z,96712.83
2019-01-13T07:24:07.306Z,96711.36
2019-01-13T07:26:33.890Z,96712.08
2019-01-13T07:29:01.116Z,96713.02
2019-01-13T07:31:28.231Z,96715.69
2019-01-13T07:33:55.263Z,96711.20
2019-01-13T07:36:21.952Z,96714.47
2019-01-13T07:38:48.832Z,96717.73
2019-01-13T07:41:15.483Z,96711.91
2019-01-13T07:43:42.163Z,96711.58
2019-01-13T07:46:09.323Z,96722.96
2019-01-13T07:48:36.065Z,96717.45
2019-01-13T07:51:03.000Z,96722.80
2019-01-13T07:53:29.628Z,96717.77
2019-01-13T07:55:56.612Z,96714.03
2019-01-13T07:58:23.404Z,96716.47
2019-01-13T08:00:50.377Z,96716.45
2019-01-13T08:03:17.095Z,96720.34
2019-01-13T08:05:44.216Z,96724.70
2019-01-13T08:08:11.169Z,96713.61
2019-01-13T08:10:38.082Z,96719.31
2019-01-13T08:13:04.714Z,96721.02
2019-01-13T08:15:33.335Z,96716.59
2019-01-13T08:18:00.237Z,96720.62
2019-01-13T08:20:26.877Z,96722.42
2019-01-13T08:22:53.457Z,96714.94
2019-01-13T08:25:20.250Z,96720.96
2019-01-13T08:27:46.865Z,96708.72
2019-01-13T08:30:14.687Z,96708.81
2019-01-13T08:32:41.588Z,96709.34
2019-01-13T08:35:08.368Z,96714.95
2019-01-13T08:37:35.241Z,96715.59
2019-01-13T08:40:01.956Z,96712.44
2019-01-13T08:42:28.710Z,96715.90
2019-01-13T08:44:55.639Z,96715.30
2019-01-13T08:47:22.533Z,96716.87
2019-01-13T08:49:49.531Z,96715.02
2019-01-13T08:52:16.513Z,96710.25
2019-01-13T08:54:45.035Z,96722.91
2019-01-13T08:57:11.795Z,96720.22
2019-01-13T08:59:38.553Z,96713.98
2019-01-13T09:02:05.476Z,96711.16
2019-01-13T09:04:32.122Z,96713.08
2019-01-13T09:06:58.829Z,96702.39
2019-01-13T09:09:25.600Z,96702.16
2019-01-13T09:11:52.206Z,96706.36
2019-01-13T09:14:18.811Z,96709.25
2019-01-13T09:16:45.674Z,96709.25
2019-01-13T09:19:14.897Z,96708.28
2019-01-13T09:21:41.760Z,96708.02
2019-01-13T09:24:08.770Z,96703.54
2019-01-13T09:26:35.419Z,96706.27
2019-01-13T09:29:02.155Z,96709.52
2019-01-13T09:31:28.832Z,96704.23
2019-01-13T09:33:55.492Z,96694.89
2019-01-13T09:36:22.263Z,96684.13
2019-01-13T09:38:49.018Z,96684.42
2019-01-13T09:41:16.418Z,96687.93
2019-01-13T09:43:45.093Z,96684.08
2019-01-13T09:46:11.672Z,96685.56
2019-01-13T09:48:38.363Z,96681.77
2019-01-13T09:51:05.922Z,96680.48
2019-01-13T09:53:32.669Z,96669.92
2019-01-13T09:56:03.004Z,96665.09
2019-01-13T09:58:31.290Z,96660.57
2019-01-13T10:00:58.106Z,96651.81
2019-01-13T10:03:25.246Z,96653.25
2019-01-13T10:05:52.416Z,96647.95
2019-01-13T10:08:21.915Z,96643.14
2019-01-13T10:10:47.673Z,96637.99
2019-01-13T10:13:15.941Z,96637.73
2019-01-13T10:15:42.531Z,96633.25
2019-01-13T10:18:09.253Z,96627.61
2019-01-13T10:20:36.486Z,96632.48
2019-01-13T10:23:03.477Z,96622.80
2019-01-13T10:25:30.307Z,96611.92
2019-01-13T10:27:58.276Z,96614.84
2019-01-13T10:30:25.293Z,96606.25
2019-01-13T10:32:54.629Z,96599.78
2019-01-13T10:35:21.666Z,96598.53
2019-01-13T10:37:48.608Z,96593.89
2019-01-13T10:40:16.830Z,96592.81
2019-01-13T10:42:43.712Z,96583.31
2019-01-13T10:45:10.426Z,96582.02
2019-01-13T10:47:37.116Z,96589.98
2019-01-13T10:50:03.779Z,96584.59
2019-01-13T10:52:30.475Z,96577.64
2019-01-13T10:54:57.090Z,96571.41
2019-01-13T10:57:24.038Z,96578.02
2019-01-13T10:59:50.725Z,96565.73
2019-01-13T11:02:17.352Z,96549.43
2019-01-13T11:04:45.591Z,96546.69
2019-01-13T11:07:12.305Z,96545.92
2019-01-13T11:09:40.434Z,96548.01
2019-01-13T11:12:08.265Z,96544.52
2019-01-13T11:14:37.789Z,96538.20
2019-01-13T11:17:05.467Z,96534.33
2019-01-13T11:19:32.334Z,96528.09
2019-01-13T11:21:58.956Z,96520.78
2019-01-13T11:24:25.908Z,96506.68
2019-01-13T11:26:52.832Z,96505.86
2019-01-13T11:29:22.878Z,96503.44
2019-01-13T11:31:49.248Z,96494.66
2019-01-13T11:34:16.378Z,96484.34
2019-01-13T11:36:44.198Z,96482.67
2019-01-13T11:39:11.081Z,96474.34
2019-01-13T11:41:37.992Z,96461.92
2019-01-13T11:44:05.958Z,96458.44
2019-01-13T11:46:33.734Z,96464.70
2019-01-13T11:49:00.419Z,96449.20
2019-01-13T11:51:27.288Z,96445.58
2019-01-13T11:53:54.287Z,96443.36
2019-01-13T11:56:31.161Z,96443.88
2019-01-13T11:58:57.827Z,96446.74
2019-01-13T12:01:24.829Z,96440.53
2019-01-13T12:03:51.709Z,96435.32
2019-01-13T12:06:18.876Z,96434.74
2019-01-13T12:08:46.748Z,96434.69
2019-01-13T12:11:14.900Z,96428.05
2019-01-13T12:13:43.238Z,96415.04
2019-01-13T12:16:13.631Z,96409.77
2019-01-13T12:18:40.867Z,96411.20
2019-01-13T12:21:09.174Z,96406.97
2019-01-13T12:23:36.050Z,96392.89
2019-01-13T12:26:06.563Z,96394.11
2019-01-13T12:28:34.923Z,96394.46
2019-01-13T12:31:02.687Z,96385.50
2019-01-13T12:33:31.521Z,96379.17
2019-01-13T12:35:59.203Z,96373.56
2019-01-13T12:38:26.596Z,96365.37
2019-01-13T12:40:56.774Z,96367.81
2019-01-13T12:45:51.030Z,96358.36
2019-01-13T12:48:21.730Z,96360.50
2019-01-13T12:50:49.467Z,96351.67
2019-01-13T12:53:17.365Z,96359.89
2019-01-13T12:55:47.777Z,96362.28
2019-01-13T12:58:15.139Z,96352.34
2019-01-13T13:00:45.575Z,96351.22
2019-01-13T13:03:14.239Z,96347.30
2019-01-13T13:05:44.374Z,96337.71
2019-01-13T13:08:11.045Z,96335.76
2019-01-13T13:10:37.889Z,96332.32
2019-01-13T13:13:04.516Z,96327.75
2019-01-13T13:15:31.158Z,96321.30
2019-01-13T13:17:59.955Z,96318.31
2019-01-13T13:20:29.601Z,96312.86
2019-01-13T13:22:57.445Z,96315.19
2019-01-13T13:25:24.072Z,96306.69
2019-01-13T13:27:57.839Z,96308.86
2019-01-13T13:30:25.353Z,96306.50
2019-01-13T13:32:54.068Z,96296.87
2019-01-13T13:35:20.656Z,96297.32
2019-01-13T13:37:58.322Z,96289.99
2019-01-13T13:40:25.539Z,96283.73
2019-01-13T13:42:54.321Z,96280.86
2019-01-13T13:45:23.622Z,96286.89
2019-01-13T13:47:55.603Z,96290.95
2019-01-13T13:50:24.605Z,96279.50
2019-01-13T13:52:55.470Z,96275.39
2019-01-13T13:55:25.847Z,96269.66
2019-01-13T13:57:53.600Z,96260.17
2019-01-13T14:03:09.589Z,96245.66
2019-01-13T14:05:36.453Z,96234.03
2019-01-13T14:08:06.511Z,96230.08
2019-01-13T14:10:38.464Z,96217.55
2019-01-13T14:13:05.145Z,96218.78
2019-01-13T14:15:35.468Z,96221.01
2019-01-13T14:20:51.216Z,96204.87
2019-01-13T14:23:20.293Z,96195.92
2019-01-13T14:25:50.398Z,96190.68
2019-01-13T14:28:24.781Z,96187.28
2019-01-13T14:30:55.178Z,96177.78
2019-01-13T14:36:12.603Z,96170.52
2019-01-13T14:38:42.713Z,96164.96
2019-01-13T14:41:10.935Z,96157.25
2019-01-13T14:43:41.400Z,96151.68
2019-01-13T14:46:08.091Z,96143.40
2019-01-13T14:48:45.104Z,96134.05
2019-01-13T14:51:15.430Z,96123.09
2019-01-13T14:53:43.530Z,96128.25
2019-01-13T14:56:11.165Z,96116.48
2019-01-13T14:58:42.427Z,96107.81
2019-01-13T15:01:11.045Z,96110.58
2019-01-13T15:03:37.428Z,96107.97
2019-01-13T15:06:07.873Z,96110.98
2019-01-13T15:08:48.377Z,96111.43
2019-01-13T15:11:31.868Z,96103.34
2019-01-13T15:14:00.494Z,96097.20
2019-01-13T15:16:29.178Z,96089.69
2019-01-13T15:18:56.873Z,96083.78
2019-01-13T15:21:26.435Z,96087.41
2019-01-13T15:23:57.129Z,96083.79
2019-01-13T15:26:27.732Z,96074.28
2019-01-13T15:29:04.380Z,96071.81
2019-01-13T15:31:34.969Z,96072.94
2019-01-13T15:34:07.314Z,96062.78
2019-01-13T15:36:35.956Z,96059.41
2019-01-13T15:39:03.411Z,96062.95
2019-01-13T15:41:33.724Z,96060.68
2019-01-13T15:44:02.689Z,96074.32
2019-01-13T15:46:31.836Z,96076.76
2019-01-13T15:49:13.189Z,96067.20
2019-01-13T15:51:42.822Z,96056.19
2019-01-13T15:54:11.846Z,96054.22
2019-01-13T15:56:40.571Z,96056.45
2019-01-13T15:59:28.663Z,96046.13
2019-01-13T16:02:01.269Z,96037.42
2019-01-13T16:04:28.791Z,96049.61
2019-01-13T16:07:00.450Z,96049.78
2019-01-13T16:09:27.101Z,96049.18
2019-01-13T16:12:07.637Z,96047.41
2019-01-13T16:14:34.780Z,96043.25
2019-01-13T16:17:07.055Z,96032.77
2019-01-13T16:19:36.009Z,96020.75
2019-01-13T16:22:04.781Z,96023.41
2019-01-13T16:24:33.664Z,96018.26
2019-01-13T16:29:54.044Z,96011.20
2019-01-13T16:32:17.155Z,96006.06
2019-01-13T16:34:45.273Z,95997.78
2019-01-13T16:37:16.718Z,95985.19
2019-01-13T16:39:45.778Z,95990.41
2019-01-13T16:42:22.392Z,95992.31
2019-01-13T16:44:49.312Z,95992.13
2019-01-13T16:47:20.062Z,95984.67
2019-01-13T16:49:49.765Z,95967.47
2019-01-13T16:52:16.379Z,95970.41
2019-01-13T16:54:43.632Z,95966.30
2019-01-13T16:57:10.318Z,95959.83
2019-01-13T16:59:37.752Z,95954.03
2019-01-13T17:02:06.746Z,95946.64
2019-01-13T17:04:35.411Z,95931.30
2019-01-13T17:07:04.545Z,95926.57
2019-01-13T17:09:34.525Z,95925.59
2019-01-13T17:12:02.579Z,95925.02
2019-01-13T17:14:36.386Z,95933.58
2019-01-13T17:17:15.388Z,95931.52
2019-01-13T17:19:44.825Z,95928.86
2019-01-13T17:22:11.408Z,95920.53
2019-01-13T17:24:40.581Z,95904.70
2019-01-13T17:27:10.280Z,95900.59
2019-01-13T17:29:37.553Z,95903.33
2019-01-13T17:32:06.731Z,95907.22
2019-01-13T17:34:35.945Z,95903.89
2019-01-13T17:37:07.193Z,95893.03
2019-01-13T17:39:34.593Z,95899.53
2019-01-13T17:42:04.889Z,95896.78
2019-01-13T17:44:32.851Z,95896.64
2019-01-13T17:47:04.205Z,95900.11
2019-01-13T17:49:38.976Z,95891.73
2019-01-13T17:52:01.819Z,95884.86
2019-01-13T17:54:38.700Z,95878.72
2019-01-13T17:57:07.687Z,95872.44
2019-01-13T17:59:38.762Z,95854.84
2019-01-13T18:02:05.126Z,95848.95
2019-01-13T18:04:31.784Z,95849.66
2019-01-13T18:06:58.395Z,95849.34
2019-01-13T18:09:35.723Z,95852.80
2019-01-13T18:12:01.897Z,95852.47
2019-01-13T18:14:31.545Z,95857.13
2019-01-13T18:17:06.238Z,95874.20
2019-01-13T18:19:44.443Z,95874.86
2019-01-13T18:22:10.246Z,95871.92
2019-01-13T18:24:36.979Z,95859.77
2019-01-13T18:27:05.926Z,95849.05
2019-01-13T18:29:36.146Z,95852.02
2019-01-13T18:32:07.396Z,95830.94
2019-01-13T18:34:37.061Z,95844.52
2019-01-13T18:37:06.263Z,95846.07
2019-01-13T18:39:33.772Z,95830.03
2019-01-13T18:42:01.602Z,95813.82
2019-01-13T18:44:33.056Z,95812.45
2019-01-13T18:47:02.460Z,95795.17
2019-01-13T18:49:33.104Z,95795.55
2019-01-13T18:52:03.944Z,95793.13
2019-01-13T18:54:32.556Z,95784.89
2019-01-13T18:57:01.451Z,95767.55
2019-01-13T18:59:32.222Z,95769.98
2019-01-13T19:02:03.516Z,95754.66
2019-01-13T19:04:31.385Z,95761.09
2019-01-13T19:06:57.956Z,95760.42
2019-01-13T19:09:25.064Z,95753.67
2019-01-13T19:11:52.010Z,95739.27
2019-01-13T19:14:18.744Z,95733.47
2019-01-13T19:16:57.225Z,95730.23
2019-01-13T19:19:24.031Z,95733.47
2019-01-13T19:21:53.201Z,95722.38
2019-01-13T19:24:23.439Z,95734.89
2019-01-13T19:26:52.518Z,95732.84
2019-01-13T19:29:20.177Z,95729.05
2019-01-13T19:34:19.490Z,95717.91
2019-01-13T19:36:47.473Z,95709.77
2019-01-13T19:39:21.779Z,95724.40
2019-01-13T19:41:50.186Z,95714.36
2019-01-13T19:44:21.191Z,95690.64
2019-01-13T19:46:49.625Z,95692.08
2019-01-13T19:49:23.579Z,95675.97
2019-01-13T19:51:54.075Z,95671.76
2019-01-13T19:54:22.862Z,95659.44
2019-01-13T19:56:54.075Z,95673.88
2019-01-13T19:59:22.542Z,95671.88
2019-01-13T20:01:50.572Z,95673.00
2019-01-13T20:04:17.309Z,95663.09
2019-01-13T20:06:44.288Z,95668.04
2019-01-13T20:09:10.917Z,95652.55
2019-01-13T20:11:37.855Z,95656.75
2019-01-13T20:14:06.293Z,95665.20
2019-01-13T20:16:38.980Z,95677.66
2019-01-13T20:19:09.384Z,95687.66
2019-01-13T20:21:40.474Z,95678.86
2019-01-13T20:24:17.459Z,95669.81
2019-01-13T20:26:46.878Z,95656.37
2019-01-13T20:29:15.521Z,95660.11
2019-01-13T20:31:44.985Z,95666.65
2019-01-13T20:34:11.589Z,95654.27
2019-01-13T20:36:41.372Z,95631.96
2019-01-13T20:39:09.459Z,95620.81
2019-01-13T20:41:50.909Z,95619.31
2019-01-13T20:44:19.871Z,95614.97
2019-01-13T20:46:46.867Z,95611.76
2019-01-13T20:49:13.564Z,95607.17
2019-01-13T20:51:40.226Z,95590.42
2019-01-13T20:54:08.017Z,95591.53
2019-01-13T20:56:34.735Z,95583.23
2019-01-13T20:59:06.255Z,95588.85
2019-01-13T21:04:06.317Z,95567.91
2019-01-13T21:06:35.196Z,95568.33
2019-01-13T21:09:05.463Z,95561.27
2019-01-13T21:14:20.766Z,95555.39
2019-01-13T21:16:49.121Z,95545.60
2019-01-13T21:19:17.116Z,95552.47
2019-01-13T21:21:48.033Z,95542.55
2019-01-13T21:24:15.903Z,95540.81
2019-01-13T21:26:42.808Z,95538.48
2019-01-13T21:29:09.456Z,95542.13
2019-01-13T21:31:37.114Z,95536.11
2019-01-13T21:34:03.987Z,95546.68
2019-01-13T21:36:31.672Z,95537.38
2019-01-13T21:38:58.277Z,95537.64
2019-01-13T21:41:26.205Z,95533.22
2019-01-13T21:43:53.136Z,95531.36
2019-01-13T21:46:21.338Z,95532.64
2019-01-13T21:48:48.145Z,95536.15
2019-01-13T21:51:15.044Z,95522.73
2019-01-13T21:53:44.331Z,95500.48
2019-01-13T21:56:12.082Z,95487.39
2019-01-13T21:58:39.324Z,95504.64
2019-01-13T22:01:06.223Z,95499.87
2019-01-13T22:03:33.609Z,95489.28
2019-01-13T22:06:01.293Z,95489.06
2019-01-13T22:08:28.150Z,95479.08
2019-01-13T22:10:54.747Z,95467.33
2019-01-13T22:13:22.132Z,95462.86
2019-01-13T22:15:48.715Z,95460.58
2019-01-13T22:18:15.320Z,95457.92
2019-01-13T22:20:41.961Z,95452.80
2019-01-13T22:23:08.625Z,95439.56
2019-01-13T22:25:35.922Z,95430.43
2019-01-13T22:28:06.454Z,95439.84
2019-01-13T22:30:33.760Z,95443.09
2019-01-13T22:33:00.559Z,95457.86
2019-01-13T22:35:30.533Z,95459.27
2019-01-13T22:37:56.901Z,95465.37
2019-01-13T22:40:27.483Z,95464.25
2019-01-13T22:42:55.837Z,95452.50
2019-01-13T22:45:22.748Z,95435.54
2019-01-13T22:47:49.574Z,95414.95
2019-01-13T22:50:16.229Z,95424.36
2019-01-13T22:52:43.734Z,95437.46
2019-01-13T22:55:10.619Z,95431.25
2019-01-13T22:57:38.249Z,95416.50
2019-01-13T23:00:05.600Z,95411.88
2019-01-13T23:02:33.198Z,95418.21
2019-01-13T23:05:00.293Z,95424.27
2019-01-13T23:07:30.735Z,95426.51
2019-01-13T23:09:57.629Z,95421.94
2019-01-13T23:12:24.276Z,95424.12
2019-01-13T23:14:50.911Z,95418.48
2019-01-13T23:17:21.807Z,95402.31
2019-01-13T23:19:48.434Z,95392.73
2019-01-13T23:22:18.745Z,95385.75
2019-01-13T23:24:45.472Z,95387.77
2019-01-13T23:27:14.275Z,95395.48
2019-01-13T23:29:44.686Z,95392.08
2019-01-13T23:32:21.367Z,95399.31
2019-01-13T23:34:49.668Z,95392.48
2019-01-13T23:37:19.389Z,95406.84
2019-01-13T23:39:46.060Z,95398.89
2019-01-13T23:42:12.686Z,95391.52
2019-01-13T23:44:39.280Z,95398.64
2019-01-13T23:47:06.173Z,95400.73
2019-01-13T23:49:36.916Z,95408.19
2019-01-13T23:52:07.520Z,95404.08
2019-01-13T23:54:36.140Z,95390.65
2019-01-13T23:57:05.296Z,95349.27
2019-01-13T23:59:31.923Z,95349.88
